Amado, Arizona
Current Conditions -  °F | °C
As of 5:54 PM on Tuesday 25 Nov 2014 (Local Time) from KOLS Reporting Station
Clear Clear  
Wind Chill: 54°   Ceiling: Unl
Heat Index: 54°   Visibility: 10mi
Dew Point: -3°   Wind: 3mph
Humidity: 10%   Direction: 270°W
Pressure: 30.3"   Gusts: NA
Location:  31.71°N, 111.07°W
Report Text: KOLS 260054Z AUTO 27003KT 10SM CLR 12/M19 A3030 RMK AO2 SLP238 T01221194
Loading
Personal Weather Stations






























Interactive Weather Map New forecast layout! Learn more

10-Day Weather Forecast

Advertisements
Track Severe Weather on mobile